createdAt,value
2022-09-04T00:00:53.950Z,23.20
2022-09-04T01:18:08.451Z,22.60
2022-09-04T03:26:21.661Z,21.80
2022-09-04T04:06:58.398Z,21.60
2022-09-04T04:08:39.294Z,21.60
2022-09-04T04:21:27.117Z,21.60
2022-09-04T04:30:37.949Z,21.50
2022-09-04T05:25:39.813Z,21.50
2022-09-04T05:37:40.360Z,21.50
2022-09-04T05:46:28.538Z,21.50
2022-09-04T05:50:08.688Z,21.50
2022-09-04T05:53:34.282Z,21.50
2022-09-04T05:57:04.814Z,21.50
2022-09-04T06:00:10.648Z,21.50
2022-09-04T06:03:19.066Z,21.50
2022-09-04T06:06:15.671Z,21.50
2022-09-04T06:09:29.733Z,21.60
2022-09-04T06:13:09.214Z,21.60
2022-09-04T06:16:19.901Z,21.60
2022-09-04T06:19:38.643Z,21.60
2022-09-04T06:22:55.061Z,21.60
2022-09-04T06:26:16.722Z,21.70
2022-09-04T06:29:41.921Z,21.70
2022-09-04T06:33:18.063Z,21.70
2022-09-04T06:36:51.258Z,21.80
2022-09-04T06:39:55.967Z,21.80
2022-09-04T06:42:59.897Z,21.80
2022-09-04T06:46:27.940Z,21.90
2022-09-04T06:50:00.102Z,22.00
2022-09-04T07:08:33.753Z,22.30
2022-09-04T07:31:27.023Z,22.80
2022-09-04T07:34:22.777Z,23.00
2022-09-04T07:37:28.064Z,23.10
2022-09-04T07:51:03.646Z,23.50
2022-09-04T07:54:22.970Z,23.70
2022-09-04T07:57:28.911Z,23.80
2022-09-04T08:00:18.999Z,23.90
2022-09-04T08:03:49.169Z,24.10
2022-09-04T08:06:51.115Z,24.20
2022-09-04T08:10:22.319Z,24.40
2022-09-04T08:13:36.376Z,24.50
2022-09-04T08:16:32.279Z,24.70
2022-09-04T08:19:43.011Z,24.80
2022-09-04T08:22:43.414Z,24.90
2022-09-04T08:25:49.779Z,25.10
2022-09-04T08:29:07.263Z,25.20
2022-09-04T08:32:13.957Z,25.40
2022-09-04T08:35:11.578Z,25.50
2022-09-04T08:38:24.222Z,25.60
2022-09-04T08:41:54.548Z,25.80
2022-09-04T08:45:42.162Z,26.00
2022-09-04T08:49:17.267Z,26.10
2022-09-04T08:52:52.782Z,26.30
2022-09-04T08:56:18.678Z,26.40
2022-09-04T09:00:03.950Z,26.60
2022-09-04T09:03:48.257Z,26.70
2022-09-04T09:07:23.982Z,26.90
2022-09-04T09:10:38.020Z,27.10
2022-09-04T09:14:31.950Z,27.20
2022-09-04T09:17:38.632Z,27.30
2022-09-04T09:20:31.200Z,27.50
2022-09-04T09:23:22.160Z,27.60
2022-09-04T09:26:35.570Z,27.70
2022-09-04T09:29:56.219Z,27.80
2022-09-04T09:33:41.615Z,27.90
2022-09-04T09:37:34.433Z,28.10
2022-09-04T09:40:57.794Z,28.20
2022-09-04T09:44:39.916Z,28.30
2022-09-04T09:48:24.277Z,28.40
2022-09-04T09:51:51.020Z,28.60
2022-09-04T09:55:32.126Z,28.70
2022-09-04T09:58:56.655Z,28.80
2022-09-04T10:02:38.353Z,28.80
2022-09-04T10:05:59.444Z,28.90
2022-09-04T10:09:38.903Z,29.00
2022-09-04T10:13:18.268Z,29.00
2022-09-04T10:16:30.393Z,29.10
2022-09-04T10:20:11.484Z,29.10
2022-09-04T10:23:37.495Z,29.20
2022-09-04T10:27:16.556Z,29.20
2022-09-04T10:30:10.213Z,29.30
2022-09-04T10:33:31.402Z,29.30
2022-09-04T10:36:36.068Z,29.40
2022-09-04T10:39:50.312Z,29.40
2022-09-04T10:42:55.961Z,29.50
2022-09-04T10:45:48.741Z,29.50
2022-09-04T10:49:07.861Z,29.60
2022-09-04T10:52:35.602Z,29.60
2022-09-04T10:55:58.067Z,29.70
2022-09-04T10:59:09.914Z,29.70
2022-09-04T11:02:30.079Z,29.80
2022-09-04T11:05:44.766Z,29.80
2022-09-04T11:09:19.978Z,29.90
2022-09-04T11:12:50.969Z,29.90
2022-09-04T11:16:04.588Z,29.90
2022-09-04T11:19:52.916Z,29.90
2022-09-04T11:23:28.024Z,29.90
2022-09-04T11:27:08.043Z,29.90
2022-09-04T11:30:08.389Z,29.90
2022-09-04T11:33:44.194Z,29.90
2022-09-04T11:37:29.881Z,29.90
2022-09-04T11:41:16.518Z,29.90
2022-09-04T11:44:49.503Z,29.90
2022-09-04T11:48:08.879Z,29.90
2022-09-04T11:51:37.276Z,29.80
2022-09-04T11:55:03.321Z,29.80
2022-09-04T11:58:09.768Z,29.70
2022-09-04T12:01:16.419Z,29.70
2022-09-04T12:04:28.579Z,29.60
2022-09-04T12:07:43.093Z,29.60
2022-09-04T12:10:55.948Z,29.60
2022-09-04T12:14:19.780Z,29.50
2022-09-04T12:17:49.260Z,29.50
2022-09-04T12:21:20.278Z,29.50
2022-09-04T12:24:52.569Z,29.50
2022-09-04T12:28:18.973Z,29.40
2022-09-04T12:31:29.136Z,29.40
2022-09-04T12:34:41.174Z,29.40
2022-09-04T12:37:54.071Z,29.40
2022-09-04T12:40:53.691Z,29.40
2022-09-04T12:43:59.461Z,29.40
2022-09-04T12:47:07.128Z,29.40
2022-09-04T12:50:33.826Z,29.40
2022-09-04T12:53:56.906Z,29.40
2022-09-04T12:56:53.268Z,29.40
2022-09-04T12:59:58.175Z,29.40
2022-09-04T13:02:59.968Z,29.40
2022-09-04T13:06:15.431Z,29.40
2022-09-04T13:09:19.117Z,29.40
2022-09-04T13:12:22.086Z,29.40
2022-09-04T13:15:43.968Z,29.40
2022-09-04T13:18:50.176Z,29.40
2022-09-04T13:22:06.684Z,29.40
2022-09-04T13:25:08.777Z,29.40
2022-09-04T13:28:17.057Z,29.50
2022-09-04T13:31:33.537Z,29.50
2022-09-04T13:34:35.721Z,29.50
2022-09-04T13:37:34.164Z,29.50
2022-09-04T13:40:56.034Z,29.50
2022-09-04T13:44:29.043Z,29.50
2022-09-04T13:47:22.945Z,29.50
2022-09-04T13:50:26.331Z,29.50
2022-09-04T13:53:22.489Z,29.50
2022-09-04T13:56:17.041Z,29.50
2022-09-04T13:59:10.799Z,29.50
2022-09-04T14:02:04.879Z,29.50
2022-09-04T14:04:57.492Z,29.50
2022-09-04T14:07:49.284Z,29.50
2022-09-04T14:11:03.374Z,29.40
2022-09-04T14:14:45.887Z,29.40
2022-09-04T14:17:42.543Z,29.40
2022-09-04T14:20:37.167Z,29.40
2022-09-04T14:23:37.328Z,29.40
2022-09-04T14:26:40.717Z,29.40
2022-09-04T14:29:38.746Z,29.40
2022-09-04T14:32:42.628Z,29.40
2022-09-04T14:35:37.896Z,29.40
2022-09-04T14:39:06.669Z,29.40
2022-09-04T14:42:42.645Z,29.40
2022-09-04T14:46:07.008Z,29.40
2022-09-04T14:49:04.296Z,29.40
2022-09-04T14:51:56.597Z,29.40
2022-09-04T14:54:46.719Z,29.40
2022-09-04T14:57:42.720Z,29.40
2022-09-04T15:00:33.416Z,29.40
2022-09-04T15:03:25.755Z,29.40
2022-09-04T15:06:21.323Z,29.40
2022-09-04T15:09:25.090Z,29.40
2022-09-04T15:12:24.536Z,29.40
2022-09-04T15:15:21.585Z,29.30
2022-09-04T15:18:16.998Z,29.30
2022-09-04T15:21:17.273Z,29.30
2022-09-04T15:24:21.192Z,29.30
2022-09-04T15:27:20.080Z,29.30
2022-09-04T15:30:19.357Z,29.30
2022-09-04T15:33:10.329Z,29.30
2022-09-04T15:36:09.164Z,29.30
2022-09-04T15:39:01.186Z,29.30
2022-09-04T15:41:51.058Z,29.30
2022-09-04T15:44:44.656Z,29.30
2022-09-04T15:47:56.776Z,29.30
2022-09-04T15:50:59.477Z,29.30
2022-09-04T15:54:09.743Z,29.30
2022-09-04T15:57:08.481Z,29.30
2022-09-04T16:00:02.192Z,29.30
2022-09-04T16:03:12.176Z,29.20
2022-09-04T16:06:08.938Z,29.20
2022-09-04T16:09:01.641Z,29.20
2022-09-04T16:11:59.852Z,29.20
2022-09-04T16:14:53.399Z,29.20
2022-09-04T16:17:48.411Z,29.20
2022-09-04T16:20:49.329Z,29.20
2022-09-04T16:23:39.450Z,29.20
2022-09-04T16:26:32.398Z,29.20
2022-09-04T16:29:36.781Z,29.20
2022-09-04T16:32:28.363Z,29.20
2022-09-04T16:35:21.431Z,29.20
2022-09-04T16:38:17.080Z,29.20
2022-09-04T16:41:16.055Z,29.10
2022-09-04T16:44:16.706Z,29.20
2022-09-04T16:47:22.781Z,29.10
2022-09-04T16:50:23.715Z,29.10
2022-09-04T16:53:20.439Z,29.10
2022-09-04T16:56:26.399Z,29.00
2022-09-04T16:59:24.808Z,29.10
2022-09-04T17:02:22.509Z,29.10
2022-09-04T17:05:28.057Z,29.00
2022-09-04T17:08:23.462Z,29.00
2022-09-04T17:11:19.119Z,29.00
2022-09-04T17:14:18.688Z,29.00
2022-09-04T17:17:29.886Z,29.00
2022-09-04T17:20:40.174Z,28.90
2022-09-04T17:29:00.395Z,28.90
2022-09-04T17:29:16.882Z,28.80
2022-09-04T17:30:09.508Z,28.90
2022-09-04T17:40:06.307Z,28.80
2022-09-04T17:40:44.479Z,28.80
2022-09-04T17:40:53.992Z,28.80
2022-09-04T17:43:21.797Z,28.70
2022-09-04T17:46:24.734Z,28.70
2022-09-04T17:49:20.196Z,28.60
2022-09-04T17:52:09.163Z,28.60
2022-09-04T17:55:05.583Z,28.60
2022-09-04T17:58:03.773Z,28.50
2022-09-04T18:01:15.138Z,28.50
2022-09-04T18:04:22.474Z,28.40
2022-09-04T18:08:06.905Z,28.40
2022-09-04T18:10:36.130Z,28.40
2022-09-04T18:13:37.768Z,28.30
2022-09-04T18:17:12.763Z,28.30
2022-09-04T18:20:12.850Z,28.20
2022-09-04T18:23:50.820Z,28.10
2022-09-04T18:26:46.989Z,28.10
2022-09-04T18:30:42.866Z,28.10
2022-09-04T18:37:20.412Z,27.90
2022-09-04T18:37:24.932Z,28.00
2022-09-04T18:39:49.795Z,27.90
2022-09-04T18:50:21.515Z,27.70
2022-09-04T18:50:22.855Z,27.80
2022-09-04T18:50:51.124Z,27.70
2022-09-04T18:52:48.702Z,27.60
2022-09-04T18:55:45.450Z,27.60
2022-09-04T18:58:53.165Z,27.50
2022-09-04T19:01:45.943Z,27.50
2022-09-04T19:04:48.158Z,27.50
2022-09-04T19:07:44.052Z,27.40
2022-09-04T19:10:34.638Z,27.40
2022-09-04T19:13:28.679Z,27.30
2022-09-04T19:16:24.088Z,27.30
2022-09-04T19:19:19.431Z,27.20
2022-09-04T19:22:15.754Z,27.20
2022-09-04T19:25:08.106Z,27.10
2022-09-04T19:28:01.063Z,27.10
2022-09-04T19:30:54.216Z,27.00
2022-09-04T19:33:49.671Z,27.00
2022-09-04T19:36:43.871Z,26.90
2022-09-04T19:45:56.271Z,26.90
2022-09-04T19:46:18.136Z,26.90
2022-09-04T19:46:27.925Z,26.80
2022-09-04T19:53:00.310Z,26.80
2022-09-04T19:53:32.832Z,26.70
2022-09-04T19:55:48.134Z,26.70
2022-09-04T19:58:44.184Z,26.60
2022-09-04T20:01:43.637Z,26.60
2022-09-04T20:04:41.406Z,26.50
2022-09-04T20:07:44.765Z,26.50
2022-09-04T20:10:39.657Z,26.40
2022-09-04T20:13:35.235Z,26.40
2022-09-04T20:16:28.628Z,26.30
2022-09-04T20:19:27.555Z,26.30
2022-09-04T20:22:34.932Z,26.20
2022-09-04T20:25:41.616Z,26.10
2022-09-04T20:28:48.744Z,26.10
2022-09-04T20:31:49.391Z,26.00
2022-09-04T20:34:46.191Z,26.00
2022-09-04T20:37:45.968Z,25.90
2022-09-04T20:40:42.394Z,25.90
2022-09-04T20:43:43.633Z,25.80
2022-09-04T20:52:45.032Z,25.80
2022-09-04T20:52:51.599Z,25.70
2022-09-04T20:53:20.298Z,25.70
2022-09-04T20:57:01.011Z,25.60
2022-09-04T21:03:10.524Z,25.60
2022-09-04T21:03:18.412Z,25.60
2022-09-04T21:06:24.478Z,25.50
2022-09-04T21:09:30.171Z,25.50
2022-09-04T21:12:28.340Z,25.40
2022-09-04T21:15:29.587Z,25.30
2022-09-04T21:18:36.390Z,25.30
2022-09-04T21:21:47.476Z,25.30
2022-09-04T21:25:18.551Z,25.20
2022-09-04T21:28:39.799Z,25.20
2022-09-04T21:32:09.493Z,25.20
2022-09-04T21:35:07.615Z,25.10
2022-09-04T21:38:15.695Z,25.10
2022-09-04T21:41:41.797Z,25.10
2022-09-04T21:45:25.958Z,25.00
2022-09-04T21:48:57.691Z,25.00
2022-09-04T21:52:26.154Z,25.00
2022-09-04T21:59:41.170Z,24.90
2022-09-04T22:02:37.645Z,24.90
2022-09-04T22:02:51.478Z,24.80
2022-09-04T22:05:51.641Z,24.70
2022-09-04T22:13:29.893Z,24.70
2022-09-04T22:13:44.179Z,24.70
2022-09-04T22:15:48.452Z,24.60
2022-09-04T22:19:24.080Z,24.60
2022-09-04T22:23:20.271Z,24.60
2022-09-04T22:32:30.135Z,24.50
2022-09-04T22:36:27.834Z,24.50
2022-09-04T22:40:09.349Z,24.40
2022-09-04T22:43:13.318Z,24.40
2022-09-04T22:47:27.402Z,24.30
2022-09-04T22:50:49.508Z,24.20
